Terminal Aerodrome Forecast
Issued by NWS Wilmington, OH

Home | Current Version | Previous Version | Text Only | Print | Product List | Glossary On
Versions: 1 2 3 4 5 6 7 8 9 10 11 12 13 14 15 16 17 18 19 20 21 22
167
FTUS41 KILN 132330
TAFCVG
TAF
KCVG 132330Z 1400/1506 VRB03KT P6SM SCT250
     FM140700 10004KT P6SM BKN200
     FM141200 11008KT P6SM OVC100
     FM141800 12008KT 5SM -SN BKN030 OVC050
     FM142000 12009KT 2SM -SN OVC015
     FM150000 14008KT 5SM -SN OVC020=

USA.gov is the U.S. government's official web portal to all federal, state and local government web resources and services.